sensor_id;sensor_type;location;lat;lon;timestamp;P1;durP1;ratioP1;P2;durP2;ratioP2
21315;SDS011;10817;55.820;13.030;2023-07-29T00:01:19;4.00;;;2.00;;
21315;SDS011;10817;55.820;13.030;2023-07-29T00:03:46;5.95;;;2.28;;
21315;SDS011;10817;55.820;13.030;2023-07-29T00:06:14;3.08;;;1.90;;
21315;SDS011;10817;55.820;13.030;2023-07-29T00:08:42;5.53;;;2.08;;
21315;SDS011;10817;55.820;13.030;2023-07-29T00:11:09;3.25;;;1.98;;
21315;SDS011;10817;55.820;13.030;2023-07-29T00:13:36;3.72;;;1.70;;
21315;SDS011;10817;55.820;13.030;2023-07-29T00:16:04;3.28;;;2.03;;
21315;SDS011;10817;55.820;13.030;2023-07-29T00:18:31;2.13;;;1.92;;
21315;SDS011;10817;55.820;13.030;2023-07-29T00:20:58;3.67;;;2.00;;
21315;SDS011;10817;55.820;13.030;2023-07-29T00:23:25;2.25;;;1.98;;
21315;SDS011;10817;55.820;13.030;2023-07-29T00:25:53;3.15;;;1.80;;
21315;SDS011;10817;55.820;13.030;2023-07-29T00:28:21;5.38;;;1.95;;
21315;SDS011;10817;55.820;13.030;2023-07-29T00:30:48;2.10;;;1.65;;
21315;SDS011;10817;55.820;13.030;2023-07-29T00:33:15;5.38;;;1.88;;
21315;SDS011;10817;55.820;13.030;2023-07-29T00:35:42;1.60;;;1.48;;
21315;SDS011;10817;55.820;13.030;2023-07-29T00:38:09;6.57;;;2.10;;
21315;SDS011;10817;55.820;13.030;2023-07-29T00:40:36;2.40;;;1.80;;
21315;SDS011;10817;55.820;13.030;2023-07-29T00:43:06;2.40;;;1.88;;
21315;SDS011;10817;55.820;13.030;2023-07-29T00:45:34;3.67;;;1.70;;
21315;SDS011;10817;55.820;13.030;2023-07-29T00:48:02;3.13;;;2.00;;
21315;SDS011;10817;55.820;13.030;2023-07-29T00:50:30;3.30;;;1.83;;
21315;SDS011;10817;55.820;13.030;2023-07-29T00:52:59;3.88;;;2.15;;
21315;SDS011;10817;55.820;13.030;2023-07-29T00:55:26;3.10;;;2.40;;
21315;SDS011;10817;55.820;13.030;2023-07-29T00:57:54;5.72;;;2.17;;
21315;SDS011;10817;55.820;13.030;2023-07-29T01:00:23;4.88;;;2.42;;
21315;SDS011;10817;55.820;13.030;2023-07-29T01:02:50;5.80;;;2.00;;
21315;SDS011;10817;55.820;13.030;2023-07-29T01:05:19;3.30;;;2.40;;
21315;SDS011;10817;55.820;13.030;2023-07-29T01:07:49;3.20;;;1.77;;
21315;SDS011;10817;55.820;13.030;2023-07-29T01:10:19;4.45;;;2.25;;
21315;SDS011;10817;55.820;13.030;2023-07-29T01:12:49;4.80;;;2.22;;
21315;SDS011;10817;55.820;13.030;2023-07-29T01:15:19;3.80;;;2.28;;
21315;SDS011;10817;55.820;13.030;2023-07-29T01:17:49;3.45;;;2.50;;
21315;SDS011;10817;55.820;13.030;2023-07-29T01:20:19;5.63;;;3.22;;
21315;SDS011;10817;55.820;13.030;2023-07-29T01:22:46;4.45;;;3.10;;
21315;SDS011;10817;55.820;13.030;2023-07-29T01:25:15;4.30;;;3.20;;
21315;SDS011;10817;55.820;13.030;2023-07-29T01:27:42;5.63;;;3.22;;
21315;SDS011;10817;55.820;13.030;2023-07-29T01:30:10;5.45;;;3.22;;
21315;SDS011;10817;55.820;13.030;2023-07-29T01:32:40;5.18;;;3.47;;
21315;SDS011;10817;55.820;13.030;2023-07-29T01:35:10;5.13;;;3.28;;
21315;SDS011;10817;55.820;13.030;2023-07-29T01:37:41;4.60;;;3.58;;
21315;SDS011;10817;55.820;13.030;2023-07-29T01:40:08;5.95;;;3.38;;
21315;SDS011;10817;55.820;13.030;2023-07-29T01:42:38;4.28;;;3.53;;
21315;SDS011;10817;55.820;13.030;2023-07-29T01:45:05;4.75;;;2.80;;
21315;SDS011;10817;55.820;13.030;2023-07-29T01:47:33;7.50;;;3.50;;
21315;SDS011;10817;55.820;13.030;2023-07-29T01:50:00;5.80;;;3.42;;
21315;SDS011;10817;55.820;13.030;2023-07-29T01:52:28;5.82;;;3.15;;
21315;SDS011;10817;55.820;13.030;2023-07-29T01:54:55;4.95;;;3.25;;
21315;SDS011;10817;55.820;13.030;2023-07-29T01:57:23;5.40;;;3.00;;
21315;SDS011;10817;55.820;13.030;2023-07-29T01:59:51;6.53;;;3.13;;
21315;SDS011;10817;55.820;13.030;2023-07-29T02:02:18;5.53;;;3.30;;
21315;SDS011;10817;55.820;13.030;2023-07-29T02:04:46;5.30;;;3.35;;
21315;SDS011;10817;55.820;13.030;2023-07-29T02:07:16;5.18;;;3.45;;
21315;SDS011;10817;55.820;13.030;2023-07-29T02:09:44;5.70;;;3.05;;
21315;SDS011;10817;55.820;13.030;2023-07-29T02:12:11;5.70;;;3.17;;
21315;SDS011;10817;55.820;13.030;2023-07-29T02:14:38;3.95;;;3.10;;
21315;SDS011;10817;55.820;13.030;2023-07-29T02:17:07;6.93;;;3.25;;
21315;SDS011;10817;55.820;13.030;2023-07-29T02:19:34;7.85;;;3.50;;
21315;SDS011;10817;55.820;13.030;2023-07-29T02:22:02;4.30;;;3.15;;
21315;SDS011;10817;55.820;13.030;2023-07-29T02:24:29;5.07;;;2.97;;
21315;SDS011;10817;55.820;13.030;2023-07-29T02:26:56;6.32;;;3.10;;
21315;SDS011;10817;55.820;13.030;2023-07-29T02:29:23;4.40;;;3.22;;
21315;SDS011;10817;55.820;13.030;2023-07-29T02:31:51;4.63;;;3.47;;
21315;SDS011;10817;55.820;13.030;2023-07-29T02:34:20;4.93;;;2.78;;
21315;SDS011;10817;55.820;13.030;2023-07-29T02:36:47;5.28;;;3.33;;
21315;SDS011;10817;55.820;13.030;2023-07-29T02:39:14;6.20;;;3.45;;
21315;SDS011;10817;55.820;13.030;2023-07-29T02:41:42;5.25;;;3.40;;
21315;SDS011;10817;55.820;13.030;2023-07-29T02:44:09;6.03;;;3.20;;
21315;SDS011;10817;55.820;13.030;2023-07-29T02:46:36;5.30;;;3.33;;
21315;SDS011;10817;55.820;13.030;2023-07-29T02:49:03;5.15;;;3.05;;
21315;SDS011;10817;55.820;13.030;2023-07-29T02:51:32;3.30;;;2.88;;
21315;SDS011;10817;55.820;13.030;2023-07-29T02:53:59;6.80;;;3.13;;
21315;SDS011;10817;55.820;13.030;2023-07-29T02:56:27;6.63;;;2.95;;
21315;SDS011;10817;55.820;13.030;2023-07-29T02:58:55;6.78;;;3.03;;
21315;SDS011;10817;55.820;13.030;2023-07-29T03:01:23;4.72;;;2.70;;
21315;SDS011;10817;55.820;13.030;2023-07-29T03:03:51;6.38;;;2.97;;
21315;SDS011;10817;55.820;13.030;2023-07-29T03:06:18;6.75;;;2.78;;
21315;SDS011;10817;55.820;13.030;2023-07-29T03:08:47;7.30;;;3.95;;
21315;SDS011;10817;55.820;13.030;2023-07-29T03:11:15;8.18;;;3.17;;
21315;SDS011;10817;55.820;13.030;2023-07-29T03:13:44;6.55;;;3.70;;
21315;SDS011;10817;55.820;13.030;2023-07-29T03:16:12;6.45;;;3.40;;
21315;SDS011;10817;55.820;13.030;2023-07-29T03:18:43;8.35;;;3.25;;
21315;SDS011;10817;55.820;13.030;2023-07-29T03:21:11;9.00;;;3.65;;
21315;SDS011;10817;55.820;13.030;2023-07-29T03:23:38;5.18;;;3.50;;
21315;SDS011;10817;55.820;13.030;2023-07-29T03:26:06;5.63;;;3.47;;
21315;SDS011;10817;55.820;13.030;2023-07-29T03:28:37;5.75;;;3.30;;
21315;SDS011;10817;55.820;13.030;2023-07-29T03:31:05;5.65;;;3.40;;
21315;SDS011;10817;55.820;13.030;2023-07-29T03:33:32;6.70;;;3.28;;
21315;SDS011;10817;55.820;13.030;2023-07-29T03:36:00;5.85;;;3.20;;
21315;SDS011;10817;55.820;13.030;2023-07-29T03:38:27;3.97;;;2.97;;
21315;SDS011;10817;55.820;13.030;2023-07-29T03:40:54;8.30;;;3.58;;
21315;SDS011;10817;55.820;13.030;2023-07-29T03:43:23;5.80;;;3.10;;
21315;SDS011;10817;55.820;13.030;2023-07-29T03:45:53;8.32;;;2.90;;
21315;SDS011;10817;55.820;13.030;2023-07-29T03:48:21;5.80;;;3.30;;
21315;SDS011;10817;55.820;13.030;2023-07-29T03:50:48;3.50;;;3.08;;
21315;SDS011;10817;55.820;13.030;2023-07-29T03:53:15;5.18;;;3.17;;
21315;SDS011;10817;55.820;13.030;2023-07-29T03:55:42;6.82;;;3.63;;
21315;SDS011;10817;55.820;13.030;2023-07-29T03:58:10;5.00;;;3.00;;
21315;SDS011;10817;55.820;13.030;2023-07-29T04:00:38;6.45;;;3.05;;
21315;SDS011;10817;55.820;13.030;2023-07-29T04:03:05;6.45;;;2.97;;
21315;SDS011;10817;55.820;13.030;2023-07-29T04:05:33;5.03;;;3.10;;
21315;SDS011;10817;55.820;13.030;2023-07-29T04:08:00;4.35;;;3.38;;
21315;SDS011;10817;55.820;13.030;2023-07-29T04:10:27;3.90;;;2.85;;
21315;SDS011;10817;55.820;13.030;2023-07-29T04:12:57;5.85;;;3.15;;
21315;SDS011;10817;55.820;13.030;2023-07-29T04:15:24;8.65;;;3.40;;
21315;SDS011;10817;55.820;13.030;2023-07-29T04:17:53;6.38;;;2.85;;
21315;SDS011;10817;55.820;13.030;2023-07-29T04:20:20;3.65;;;2.80;;
21315;SDS011;10817;55.820;13.030;2023-07-29T04:22:47;5.65;;;3.03;;
21315;SDS011;10817;55.820;13.030;2023-07-29T04:25:15;6.03;;;2.40;;
21315;SDS011;10817;55.820;13.030;2023-07-29T04:27:42;3.50;;;2.55;;
21315;SDS011;10817;55.820;13.030;2023-07-29T04:30:09;5.35;;;3.05;;
21315;SDS011;10817;55.820;13.030;2023-07-29T04:32:37;3.63;;;2.90;;
21315;SDS011;10817;55.820;13.030;2023-07-29T04:35:08;3.35;;;2.63;;
21315;SDS011;10817;55.820;13.030;2023-07-29T04:37:36;6.10;;;3.30;;
21315;SDS011;10817;55.820;13.030;2023-07-29T04:40:03;2.75;;;2.50;;
21315;SDS011;10817;55.820;13.030;2023-07-29T04:42:30;5.32;;;2.72;;
21315;SDS011;10817;55.820;13.030;2023-07-29T04:44:57;3.00;;;2.58;;
21315;SDS011;10817;55.820;13.030;2023-07-29T04:47:25;6.28;;;2.60;;
21315;SDS011;10817;55.820;13.030;2023-07-29T04:49:52;5.05;;;2.80;;
21315;SDS011;10817;55.820;13.030;2023-07-29T04:52:21;5.35;;;3.00;;
21315;SDS011;10817;55.820;13.030;2023-07-29T04:54:48;4.30;;;2.80;;
21315;SDS011;10817;55.820;13.030;2023-07-29T04:57:15;6.18;;;3.03;;
21315;SDS011;10817;55.820;13.030;2023-07-29T04:59:43;4.97;;;2.40;;
21315;SDS011;10817;55.820;13.030;2023-07-29T05:02:10;4.15;;;2.50;;
21315;SDS011;10817;55.820;13.030;2023-07-29T05:04:37;3.67;;;2.53;;
21315;SDS011;10817;55.820;13.030;2023-07-29T05:07:04;5.65;;;2.58;;
21315;SDS011;10817;55.820;13.030;2023-07-29T05:09:33;2.50;;;2.30;;
21315;SDS011;10817;55.820;13.030;2023-07-29T05:12:00;3.90;;;2.80;;
21315;SDS011;10817;55.820;13.030;2023-07-29T05:14:28;6.93;;;3.65;;
21315;SDS011;10817;55.820;13.030;2023-07-29T05:16:55;3.42;;;2.60;;
21315;SDS011;10817;55.820;13.030;2023-07-29T05:19:22;3.55;;;2.70;;
21315;SDS011;10817;55.820;13.030;2023-07-29T05:21:49;2.75;;;2.42;;
21315;SDS011;10817;55.820;13.030;2023-07-29T05:24:17;3.58;;;2.70;;
21315;SDS011;10817;55.820;13.030;2023-07-29T05:26:45;3.33;;;2.72;;
21315;SDS011;10817;55.820;13.030;2023-07-29T05:29:12;8.43;;;2.60;;
21315;SDS011;10817;55.820;13.030;2023-07-29T05:31:39;8.70;;;3.05;;
21315;SDS011;10817;55.820;13.030;2023-07-29T05:34:07;4.63;;;2.60;;
21315;SDS011;10817;55.820;13.030;2023-07-29T05:36:35;6.20;;;3.15;;
21315;SDS011;10817;55.820;13.030;2023-07-29T05:39:02;5.97;;;3.30;;
21315;SDS011;10817;55.820;13.030;2023-07-29T05:41:30;6.18;;;2.70;;
21315;SDS011;10817;55.820;13.030;2023-07-29T05:43:58;5.80;;;2.83;;
21315;SDS011;10817;55.820;13.030;2023-07-29T05:46:26;3.47;;;2.80;;
21315;SDS011;10817;55.820;13.030;2023-07-29T05:48:53;7.05;;;2.72;;
21315;SDS011;10817;55.820;13.030;2023-07-29T05:51:20;3.55;;;2.25;;
21315;SDS011;10817;55.820;13.030;2023-07-29T05:53:47;5.68;;;2.67;;
21315;SDS011;10817;55.820;13.030;2023-07-29T05:56:14;5.38;;;3.38;;
21315;SDS011;10817;55.820;13.030;2023-07-29T05:58:43;3.55;;;2.63;;
21315;SDS011;10817;55.820;13.030;2023-07-29T06:01:12;3.42;;;2.80;;
21315;SDS011;10817;55.820;13.030;2023-07-29T06:03:40;3.97;;;2.95;;
21315;SDS011;10817;55.820;13.030;2023-07-29T06:06:07;4.47;;;3.08;;
21315;SDS011;10817;55.820;13.030;2023-07-29T06:08:34;5.13;;;2.90;;
21315;SDS011;10817;55.820;13.030;2023-07-29T06:11:01;6.20;;;3.25;;
21315;SDS011;10817;55.820;13.030;2023-07-29T06:13:31;4.22;;;2.92;;
21315;SDS011;10817;55.820;13.030;2023-07-29T06:15:58;4.43;;;2.85;;
21315;SDS011;10817;55.820;13.030;2023-07-29T06:18:27;4.72;;;3.13;;
21315;SDS011;10817;55.820;13.030;2023-07-29T06:20:54;4.40;;;3.60;;
21315;SDS011;10817;55.820;13.030;2023-07-29T06:23:21;5.70;;;3.78;;
21315;SDS011;10817;55.820;13.030;2023-07-29T06:25:48;8.32;;;3.28;;
21315;SDS011;10817;55.820;13.030;2023-07-29T06:28:15;4.93;;;3.25;;
21315;SDS011;10817;55.820;13.030;2023-07-29T06:30:42;5.85;;;3.05;;
21315;SDS011;10817;55.820;13.030;2023-07-29T06:33:10;4.25;;;3.10;;
21315;SDS011;10817;55.820;13.030;2023-07-29T06:35:38;3.75;;;3.35;;
21315;SDS011;10817;55.820;13.030;2023-07-29T06:38:06;5.10;;;3.60;;
21315;SDS011;10817;55.820;13.030;2023-07-29T06:40:33;3.45;;;2.95;;
21315;SDS011;10817;55.820;13.030;2023-07-29T06:43:00;8.38;;;2.58;;
21315;SDS011;10817;55.820;13.030;2023-07-29T06:45:27;7.13;;;2.67;;
21315;SDS011;10817;55.820;13.030;2023-07-29T06:47:54;4.90;;;2.75;;
21315;SDS011;10817;55.820;13.030;2023-07-29T06:50:22;3.63;;;2.72;;
21315;SDS011;10817;55.820;13.030;2023-07-29T06:52:50;5.75;;;2.55;;
21315;SDS011;10817;55.820;13.030;2023-07-29T06:55:17;4.82;;;2.90;;
21315;SDS011;10817;55.820;13.030;2023-07-29T06:57:45;3.85;;;2.65;;
21315;SDS011;10817;55.820;13.030;2023-07-29T07:00:13;3.67;;;2.65;;
21315;SDS011;10817;55.820;13.030;2023-07-29T07:02:40;4.50;;;2.92;;
21315;SDS011;10817;55.820;13.030;2023-07-29T07:05:08;4.63;;;3.10;;
21315;SDS011;10817;55.820;13.030;2023-07-29T07:07:35;5.85;;;2.92;;
21315;SDS011;10817;55.820;13.030;2023-07-29T07:10:05;4.00;;;2.75;;
21315;SDS011;10817;55.820;13.030;2023-07-29T07:12:32;4.97;;;3.17;;
21315;SDS011;10817;55.820;13.030;2023-07-29T07:14:59;5.38;;;3.00;;
21315;SDS011;10817;55.820;13.030;2023-07-29T07:17:27;4.20;;;2.85;;
21315;SDS011;10817;55.820;13.030;2023-07-29T07:19:54;5.32;;;3.00;;
21315;SDS011;10817;55.820;13.030;2023-07-29T07:22:21;6.18;;;3.35;;
21315;SDS011;10817;55.820;13.030;2023-07-29T07:24:49;8.02;;;3.30;;
21315;SDS011;10817;55.820;13.030;2023-07-29T07:27:17;4.15;;;2.95;;
21315;SDS011;10817;55.820;13.030;2023-07-29T07:29:44;4.55;;;2.92;;
21315;SDS011;10817;55.820;13.030;2023-07-29T07:32:11;3.08;;;2.63;;
21315;SDS011;10817;55.820;13.030;2023-07-29T07:34:39;5.72;;;3.10;;
21315;SDS011;10817;55.820;13.030;2023-07-29T07:37:06;5.35;;;2.80;;
21315;SDS011;10817;55.820;13.030;2023-07-29T07:39:33;4.88;;;2.90;;
21315;SDS011;10817;55.820;13.030;2023-07-29T07:42:00;4.55;;;2.70;;
21315;SDS011;10817;55.820;13.030;2023-07-29T07:44:29;3.55;;;2.60;;
21315;SDS011;10817;55.820;13.030;2023-07-29T07:46:56;3.67;;;2.63;;
21315;SDS011;10817;55.820;13.030;2023-07-29T07:49:23;5.30;;;2.30;;
21315;SDS011;10817;55.820;13.030;2023-07-29T07:51:51;4.15;;;2.78;;
21315;SDS011;10817;55.820;13.030;2023-07-29T07:54:18;4.22;;;2.63;;
21315;SDS011;10817;55.820;13.030;2023-07-29T07:56:45;3.70;;;2.55;;
21315;SDS011;10817;55.820;13.030;2023-07-29T07:59:12;6.88;;;2.50;;
21315;SDS011;10817;55.820;13.030;2023-07-29T08:01:41;7.03;;;2.83;;
21315;SDS011;10817;55.820;13.030;2023-07-29T08:04:08;3.33;;;2.35;;
21315;SDS011;10817;55.820;13.030;2023-07-29T08:06:35;3.17;;;2.38;;
21315;SDS011;10817;55.820;13.030;2023-07-29T08:09:02;3.45;;;2.30;;
21315;SDS011;10817;55.820;13.030;2023-07-29T08:11:30;3.97;;;2.10;;
21315;SDS011;10817;55.820;13.030;2023-07-29T08:13:58;2.47;;;1.98;;
21315;SDS011;10817;55.820;13.030;2023-07-29T08:16:25;4.75;;;2.42;;
21315;SDS011;10817;55.820;13.030;2023-07-29T08:18:53;4.00;;;2.13;;
21315;SDS011;10817;55.820;13.030;2023-07-29T08:21:21;4.80;;;2.08;;
21315;SDS011;10817;55.820;13.030;2023-07-29T08:23:48;3.78;;;2.05;;
21315;SDS011;10817;55.820;13.030;2023-07-29T08:26:15;2.63;;;1.80;;
21315;SDS011;10817;55.820;13.030;2023-07-29T08:28:42;2.40;;;1.80;;
21315;SDS011;10817;55.820;13.030;2023-07-29T08:31:09;5.00;;;2.03;;
21315;SDS011;10817;55.820;13.030;2023-07-29T08:33:36;3.42;;;2.30;;
21315;SDS011;10817;55.820;13.030;2023-07-29T08:36:05;5.03;;;2.10;;
21315;SDS011;10817;55.820;13.030;2023-07-29T08:38:32;2.95;;;1.80;;
21315;SDS011;10817;55.820;13.030;2023-07-29T08:41:04;5.93;;;1.92;;
21315;SDS011;10817;55.820;13.030;2023-07-29T08:43:32;7.63;;;2.15;;
21315;SDS011;10817;55.820;13.030;2023-07-29T08:45:59;2.10;;;1.80;;
21315;SDS011;10817;55.820;13.030;2023-07-29T08:48:29;2.38;;;1.83;;
21315;SDS011;10817;55.820;13.030;2023-07-29T08:50:59;3.22;;;2.15;;
21315;SDS011;10817;55.820;13.030;2023-07-29T08:53:28;3.75;;;1.90;;
21315;SDS011;10817;55.820;13.030;2023-07-29T08:55:55;2.10;;;1.90;;
21315;SDS011;10817;55.820;13.030;2023-07-29T08:58:23;2.05;;;1.73;;
21315;SDS011;10817;55.820;13.030;2023-07-29T09:00:50;3.53;;;1.50;;
21315;SDS011;10817;55.820;13.030;2023-07-29T09:03:17;2.85;;;2.20;;
21315;SDS011;10817;55.820;13.030;2023-07-29T09:05:45;3.00;;;2.00;;
21315;SDS011;10817;55.820;13.030;2023-07-29T09:08:13;6.20;;;1.70;;
21315;SDS011;10817;55.820;13.030;2023-07-29T09:10:41;3.33;;;1.65;;
21315;SDS011;10817;55.820;13.030;2023-07-29T09:13:08;3.10;;;2.10;;
21315;SDS011;10817;55.820;13.030;2023-07-29T09:15:36;3.20;;;1.92;;
21315;SDS011;10817;55.820;13.030;2023-07-29T09:18:09;2.50;;;1.90;;
21315;SDS011;10817;55.820;13.030;2023-07-29T09:20:37;4.18;;;2.20;;
21315;SDS011;10817;55.820;13.030;2023-07-29T09:23:06;1.98;;;1.70;;
21315;SDS011;10817;55.820;13.030;2023-07-29T09:25:34;2.35;;;1.70;;
21315;SDS011;10817;55.820;13.030;2023-07-29T09:28:07;2.30;;;1.83;;
21315;SDS011;10817;55.820;13.030;2023-07-29T09:30:35;2.38;;;1.60;;
21315;SDS011;10817;55.820;13.030;2023-07-29T09:33:02;3.78;;;1.90;;
21315;SDS011;10817;55.820;13.030;2023-07-29T09:35:30;1.67;;;1.58;;
21315;SDS011;10817;55.820;13.030;2023-07-29T09:37:57;2.90;;;1.70;;
21315;SDS011;10817;55.820;13.030;2023-07-29T09:40:24;6.00;;;1.92;;
21315;SDS011;10817;55.820;13.030;2023-07-29T09:42:52;2.75;;;1.77;;
21315;SDS011;10817;55.820;13.030;2023-07-29T09:45:22;2.80;;;1.77;;
21315;SDS011;10817;55.820;13.030;2023-07-29T09:47:49;3.53;;;1.90;;
21315;SDS011;10817;55.820;13.030;2023-07-29T09:50:17;2.25;;;2.05;;
21315;SDS011;10817;55.820;13.030;2023-07-29T09:52:44;3.75;;;2.40;;
21315;SDS011;10817;55.820;13.030;2023-07-29T09:55:13;2.63;;;2.05;;
21315;SDS011;10817;55.820;13.030;2023-07-29T09:57:43;2.92;;;2.30;;
21315;SDS011;10817;55.820;13.030;2023-07-29T10:00:11;2.85;;;2.30;;
21315;SDS011;10817;55.820;13.030;2023-07-29T10:02:41;2.78;;;2.17;;
21315;SDS011;10817;55.820;13.030;2023-07-29T10:05:09;3.65;;;2.25;;
21315;SDS011;10817;55.820;13.030;2023-07-29T10:07:37;2.80;;;2.15;;
21315;SDS011;10817;55.820;13.030;2023-07-29T10:10:05;5.30;;;2.33;;
21315;SDS011;10817;55.820;13.030;2023-07-29T10:12:33;3.65;;;2.60;;
21315;SDS011;10817;55.820;13.030;2023-07-29T10:15:02;4.63;;;2.30;;
21315;SDS011;10817;55.820;13.030;2023-07-29T10:17:29;3.78;;;1.95;;
21315;SDS011;10817;55.820;13.030;2023-07-29T10:19:58;5.22;;;2.38;;
21315;SDS011;10817;55.820;13.030;2023-07-29T10:22:28;5.03;;;2.30;;
21315;SDS011;10817;55.820;13.030;2023-07-29T10:24:56;2.30;;;2.10;;
21315;SDS011;10817;55.820;13.030;2023-07-29T10:27:26;4.82;;;2.33;;
21315;SDS011;10817;55.820;13.030;2023-07-29T10:29:54;3.53;;;2.70;;
21315;SDS011;10817;55.820;13.030;2023-07-29T10:32:23;6.18;;;2.88;;
21315;SDS011;10817;55.820;13.030;2023-07-29T10:34:52;4.10;;;2.42;;
21315;SDS011;10817;55.820;13.030;2023-07-29T10:37:20;4.93;;;2.75;;
21315;SDS011;10817;55.820;13.030;2023-07-29T10:39:52;5.78;;;2.47;;
21315;SDS011;10817;55.820;13.030;2023-07-29T10:42:19;2.22;;;2.03;;
21315;SDS011;10817;55.820;13.030;2023-07-29T10:44:47;3.17;;;2.28;;
21315;SDS011;10817;55.820;13.030;2023-07-29T10:47:16;4.10;;;1.90;;
21315;SDS011;10817;55.820;13.030;2023-07-29T10:49:43;1.60;;;1.50;;
21315;SDS011;10817;55.820;13.030;2023-07-29T10:52:12;1.40;;;1.30;;
21315;SDS011;10817;55.820;13.030;2023-07-29T10:54:45;3.17;;;1.45;;
21315;SDS011;10817;55.820;13.030;2023-07-29T10:57:12;2.13;;;1.60;;
21315;SDS011;10817;55.820;13.030;2023-07-29T10:59:40;1.90;;;1.70;;
21315;SDS011;10817;55.820;13.030;2023-07-29T11:02:12;2.55;;;1.80;;
21315;SDS011;10817;55.820;13.030;2023-07-29T11:04:46;3.65;;;2.53;;
21315;SDS011;10817;55.820;13.030;2023-07-29T11:07:20;3.28;;;2.35;;
21315;SDS011;10817;55.820;13.030;2023-07-29T11:10:06;3.08;;;2.33;;
21315;SDS011;10817;55.820;13.030;2023-07-29T11:12:33;3.13;;;2.70;;
21315;SDS011;10817;55.820;13.030;2023-07-29T11:15:02;3.63;;;2.65;;
21315;SDS011;10817;55.820;13.030;2023-07-29T11:17:30;2.97;;;2.17;;
21315;SDS011;10817;55.820;13.030;2023-07-29T11:20:00;3.10;;;2.58;;
21315;SDS011;10817;55.820;13.030;2023-07-29T11:22:28;3.97;;;2.55;;
21315;SDS011;10817;55.820;13.030;2023-07-29T11:24:56;3.53;;;2.22;;
21315;SDS011;10817;55.820;13.030;2023-07-29T11:27:24;6.03;;;2.50;;
21315;SDS011;10817;55.820;13.030;2023-07-29T11:29:56;3.63;;;2.30;;
21315;SDS011;10817;55.820;13.030;2023-07-29T11:32:23;3.40;;;2.70;;
21315;SDS011;10817;55.820;13.030;2023-07-29T11:34:51;2.60;;;1.95;;
21315;SDS011;10817;55.820;13.030;2023-07-29T11:37:18;2.80;;;2.35;;
21315;SDS011;10817;55.820;13.030;2023-07-29T11:39:47;4.57;;;3.00;;
21315;SDS011;10817;55.820;13.030;2023-07-29T11:42:15;3.28;;;2.28;;
21315;SDS011;10817;55.820;13.030;2023-07-29T11:44:43;3.45;;;2.45;;
21315;SDS011;10817;55.820;13.030;2023-07-29T11:47:10;3.90;;;2.78;;
21315;SDS011;10817;55.820;13.030;2023-07-29T11:49:38;2.47;;;2.22;;
21315;SDS011;10817;55.820;13.030;2023-07-29T11:52:06;3.60;;;2.22;;
21315;SDS011;10817;55.820;13.030;2023-07-29T11:54:34;2.35;;;2.13;;
21315;SDS011;10817;55.820;13.030;2023-07-29T11:57:02;4.63;;;2.30;;
21315;SDS011;10817;55.820;13.030;2023-07-29T11:59:31;2.05;;;1.85;;
21315;SDS011;10817;55.820;13.030;2023-07-29T12:02:00;3.38;;;2.17;;
21315;SDS011;10817;55.820;13.030;2023-07-29T12:04:28;3.33;;;1.90;;
21315;SDS011;10817;55.820;13.030;2023-07-29T12:06:55;3.70;;;2.05;;
21315;SDS011;10817;55.820;13.030;2023-07-29T12:09:23;2.55;;;2.00;;
21315;SDS011;10817;55.820;13.030;2023-07-29T12:11:52;3.67;;;2.03;;
21315;SDS011;10817;55.820;13.030;2023-07-29T12:14:19;6.63;;;1.83;;
21315;SDS011;10817;55.820;13.030;2023-07-29T12:16:48;3.58;;;2.08;;
21315;SDS011;10817;55.820;13.030;2023-07-29T12:19:17;1.98;;;1.80;;
21315;SDS011;10817;55.820;13.030;2023-07-29T12:21:44;2.10;;;1.80;;
21315;SDS011;10817;55.820;13.030;2023-07-29T12:24:12;2.13;;;1.90;;
21315;SDS011;10817;55.820;13.030;2023-07-29T12:26:40;2.28;;;1.92;;
21315;SDS011;10817;55.820;13.030;2023-07-29T12:29:13;6.95;;;2.72;;
21315;SDS011;10817;55.820;13.030;2023-07-29T12:31:41;3.10;;;2.28;;
21315;SDS011;10817;55.820;13.030;2023-07-29T12:34:09;4.55;;;2.17;;
21315;SDS011;10817;55.820;13.030;2023-07-29T12:36:41;3.38;;;1.98;;
21315;SDS011;10817;55.820;13.030;2023-07-29T12:39:15;3.53;;;2.30;;
21315;SDS011;10817;55.820;13.030;2023-07-29T12:41:42;3.67;;;2.20;;
21315;SDS011;10817;55.820;13.030;2023-07-29T12:44:09;3.20;;;2.38;;
21315;SDS011;10817;55.820;13.030;2023-07-29T12:46:36;2.80;;;2.40;;
21315;SDS011;10817;55.820;13.030;2023-07-29T12:49:04;2.90;;;2.30;;
21315;SDS011;10817;55.820;13.030;2023-07-29T12:51:32;3.83;;;2.63;;
21315;SDS011;10817;55.820;13.030;2023-07-29T12:54:00;5.30;;;2.30;;
21315;SDS011;10817;55.820;13.030;2023-07-29T12:56:28;3.00;;;1.90;;
21315;SDS011;10817;55.820;13.030;2023-07-29T12:58:55;4.65;;;2.20;;
21315;SDS011;10817;55.820;13.030;2023-07-29T13:01:23;2.83;;;1.67;;
21315;SDS011;10817;55.820;13.030;2023-07-29T13:03:51;2.53;;;1.75;;
21315;SDS011;10817;55.820;13.030;2023-07-29T13:06:18;3.00;;;2.03;;
21315;SDS011;10817;55.820;13.030;2023-07-29T13:08:47;2.70;;;2.00;;
21315;SDS011;10817;55.820;13.030;2023-07-29T13:11:14;2.58;;;2.30;;
21315;SDS011;10817;55.820;13.030;2023-07-29T13:13:41;3.05;;;2.17;;
21315;SDS011;10817;55.820;13.030;2023-07-29T13:16:12;2.38;;;2.17;;
21315;SDS011;10817;55.820;13.030;2023-07-29T13:18:40;4.57;;;2.00;;
21315;SDS011;10817;55.820;13.030;2023-07-29T13:21:07;3.00;;;2.08;;
21315;SDS011;10817;55.820;13.030;2023-07-29T13:23:34;4.03;;;2.28;;
21315;SDS011;10817;55.820;13.030;2023-07-29T13:26:03;6.68;;;3.70;;
21315;SDS011;10817;55.820;13.030;2023-07-29T13:28:30;5.80;;;4.20;;
21315;SDS011;10817;55.820;13.030;2023-07-29T13:30:57;6.55;;;3.55;;
21315;SDS011;10817;55.820;13.030;2023-07-29T13:33:25;4.47;;;3.40;;
21315;SDS011;10817;55.820;13.030;2023-07-29T13:35:52;5.22;;;3.88;;
21315;SDS011;10817;55.820;13.030;2023-07-29T13:38:19;3.03;;;2.50;;
21315;SDS011;10817;55.820;13.030;2023-07-29T13:40:46;3.22;;;2.88;;
21315;SDS011;10817;55.820;13.030;2023-07-29T13:43:17;3.40;;;2.53;;
21315;SDS011;10817;55.820;13.030;2023-07-29T13:45:44;2.10;;;1.90;;
21315;SDS011;10817;55.820;13.030;2023-07-29T13:48:13;3.17;;;2.22;;
21315;SDS011;10817;55.820;13.030;2023-07-29T13:50:40;2.55;;;1.80;;
21315;SDS011;10817;55.820;13.030;2023-07-29T13:53:08;1.80;;;1.65;;
21315;SDS011;10817;55.820;13.030;2023-07-29T13:55:36;1.55;;;1.33;;
21315;SDS011;10817;55.820;13.030;2023-07-29T13:58:03;1.85;;;1.40;;
21315;SDS011;10817;55.820;13.030;2023-07-29T14:00:32;1.80;;;1.52;;
21315;SDS011;10817;55.820;13.030;2023-07-29T14:02:59;1.80;;;1.38;;
21315;SDS011;10817;55.820;13.030;2023-07-29T14:05:26;1.45;;;1.20;;
21315;SDS011;10817;55.820;13.030;2023-07-29T14:07:53;1.20;;;1.10;;
21315;SDS011;10817;55.820;13.030;2023-07-29T14:10:20;2.70;;;1.40;;
21315;SDS011;10817;55.820;13.030;2023-07-29T14:12:47;2.58;;;1.50;;
21315;SDS011;10817;55.820;13.030;2023-07-29T14:15:15;1.20;;;1.02;;
21315;SDS011;10817;55.820;13.030;2023-07-29T14:17:43;1.33;;;1.10;;
21315;SDS011;10817;55.820;13.030;2023-07-29T14:20:11;2.50;;;1.13;;
21315;SDS011;10817;55.820;13.030;2023-07-29T14:22:38;1.83;;;0.88;;
21315;SDS011;10817;55.820;13.030;2023-07-29T14:25:05;0.90;;;0.90;;
21315;SDS011;10817;55.820;13.030;2023-07-29T14:27:33;1.00;;;0.80;;
21315;SDS011;10817;55.820;13.030;2023-07-29T14:30:00;1.40;;;1.08;;
21315;SDS011;10817;55.820;13.030;2023-07-29T14:32:27;1.30;;;1.20;;
21315;SDS011;10817;55.820;13.030;2023-07-29T14:34:57;2.22;;;1.30;;
21315;SDS011;10817;55.820;13.030;2023-07-29T14:37:28;3.72;;;1.30;;